createdAt,value
2017-06-25T00:00:17.596Z,5.80
2017-06-25T00:02:44.266Z,5.85
2017-06-25T00:05:10.942Z,5.85
2017-06-25T00:07:37.608Z,5.32
2017-06-25T00:10:04.279Z,5.37
2017-06-25T00:12:30.967Z,5.80
2017-06-25T00:14:57.633Z,5.20
2017-06-25T00:17:24.336Z,5.07
2017-06-25T00:19:51.008Z,5.65
2017-06-25T00:22:17.702Z,5.12
2017-06-25T00:24:44.364Z,5.62
2017-06-25T00:27:11.057Z,5.10
2017-06-25T00:29:37.730Z,5.00
2017-06-25T00:32:04.436Z,6.07
2017-06-25T00:34:31.119Z,5.78
2017-06-25T00:36:57.781Z,5.90
2017-06-25T00:39:24.453Z,6.85
2017-06-25T00:41:51.124Z,5.80
2017-06-25T00:44:17.820Z,6.18
2017-06-25T00:46:44.501Z,6.15
2017-06-25T00:49:11.195Z,6.07
2017-06-25T00:51:37.860Z,6.32
2017-06-25T00:54:10.295Z,6.90
2017-06-25T00:56:36.956Z,7.00
2017-06-25T00:59:03.668Z,7.75
2017-06-25T01:01:30.337Z,7.25
2017-06-25T01:03:57.031Z,7.00
2017-06-25T01:06:23.696Z,7.95
2017-06-25T01:08:50.391Z,8.20
2017-06-25T01:11:17.072Z,7.22
2017-06-25T01:13:43.744Z,6.93
2017-06-25T01:16:10.419Z,7.28
2017-06-25T01:18:37.085Z,7.20
2017-06-25T01:21:03.786Z,6.97
2017-06-25T01:23:30.448Z,6.78
2017-06-25T01:25:57.135Z,6.82
2017-06-25T01:28:23.804Z,7.32
2017-06-25T01:30:50.499Z,7.40
2017-06-25T01:33:17.172Z,7.35
2017-06-25T01:35:43.879Z,7.40
2017-06-25T01:38:10.553Z,7.85
2017-06-25T01:40:37.225Z,8.13
2017-06-25T01:43:03.892Z,7.30
2017-06-25T01:45:30.559Z,7.12
2017-06-25T01:47:57.223Z,7.80
2017-06-25T01:50:23.887Z,9.10
2017-06-25T01:52:50.580Z,8.80
2017-06-25T01:55:17.253Z,9.70
2017-06-25T01:57:43.949Z,10.10
2017-06-25T02:00:10.625Z,10.25
2017-06-25T02:02:37.324Z,10.50
2017-06-25T02:05:04.000Z,11.38
2017-06-25T02:07:30.692Z,11.48
2017-06-25T02:09:57.384Z,12.20
2017-06-25T02:12:24.053Z,12.02
2017-06-25T02:14:50.735Z,12.95
2017-06-25T02:17:17.411Z,11.50
2017-06-25T02:19:44.132Z,12.95
2017-06-25T02:22:10.804Z,12.75
2017-06-25T02:24:37.500Z,13.55
2017-06-25T02:27:04.177Z,13.43
2017-06-25T02:29:30.856Z,14.27
2017-06-25T02:32:30.468Z,14.10
2017-06-25T02:34:57.149Z,13.52
2017-06-25T02:37:23.823Z,14.90
2017-06-25T02:39:50.501Z,14.82
2017-06-25T02:42:17.208Z,14.73
2017-06-25T02:44:43.895Z,15.93
2017-06-25T02:47:10.605Z,15.27
2017-06-25T02:49:37.281Z,16.98
2017-06-25T02:52:03.988Z,15.05
2017-06-25T02:54:30.686Z,17.17
2017-06-25T02:56:57.396Z,16.77
2017-06-25T02:59:24.076Z,15.48
2017-06-25T03:01:50.760Z,16.60
2017-06-25T03:04:17.435Z,18.08
2017-06-25T03:06:44.119Z,18.15
2017-06-25T03:09:16.585Z,17.95
2017-06-25T03:11:43.274Z,19.00
2017-06-25T03:14:09.976Z,18.00
2017-06-25T03:16:36.657Z,17.58
2017-06-25T03:19:03.370Z,18.17
2017-06-25T03:21:30.044Z,21.45
2017-06-25T03:23:56.717Z,21.10
2017-06-25T03:26:23.408Z,19.40
2017-06-25T03:28:50.093Z,20.67
2017-06-25T03:31:16.774Z,21.52
2017-06-25T03:33:43.452Z,22.67
2017-06-25T03:36:10.131Z,21.52
2017-06-25T03:38:36.804Z,23.23
2017-06-25T03:41:03.513Z,22.52
2017-06-25T03:43:30.191Z,21.15
2017-06-25T03:45:56.868Z,20.88
2017-06-25T03:48:23.545Z,22.20
2017-06-25T03:50:50.240Z,23.95
2017-06-25T03:53:16.917Z,21.70
2017-06-25T03:55:43.608Z,23.73
2017-06-25T03:58:10.288Z,23.08
2017-06-25T04:00:36.957Z,22.45
2017-06-25T04:03:03.663Z,24.58
2017-06-25T04:05:30.361Z,21.77
2017-06-25T04:07:57.040Z,22.27
2017-06-25T04:10:23.714Z,22.45
2017-06-25T04:12:50.392Z,21.30
2017-06-25T04:15:17.072Z,23.45
2017-06-25T04:17:43.748Z,20.60
2017-06-25T04:20:10.418Z,20.27
2017-06-25T04:22:37.096Z,22.35
2017-06-25T04:25:03.804Z,22.75
2017-06-25T04:27:30.491Z,19.92
2017-06-25T04:29:57.203Z,19.50
2017-06-25T04:32:23.880Z,20.45
2017-06-25T04:34:50.561Z,19.85
2017-06-25T04:37:17.233Z,18.45
2017-06-25T04:39:43.925Z,19.37
2017-06-25T04:42:10.615Z,18.00
2017-06-25T04:44:37.293Z,16.27
2017-06-25T04:47:03.999Z,16.65
2017-06-25T04:49:30.682Z,17.00
2017-06-25T04:51:57.356Z,17.35
2017-06-25T04:54:24.027Z,16.95
2017-06-25T04:56:50.727Z,16.50
2017-06-25T04:59:17.399Z,16.92
2017-06-25T05:01:44.096Z,18.00
2017-06-25T05:04:10.771Z,16.95
2017-06-25T05:06:37.448Z,18.60
2017-06-25T05:09:04.129Z,17.17
2017-06-25T05:11:30.808Z,20.48
2017-06-25T05:13:57.496Z,19.85
2017-06-25T05:16:24.169Z,22.33
2017-06-25T05:18:50.843Z,20.25
2017-06-25T05:21:17.519Z,23.10
2017-06-25T05:23:44.192Z,21.60
2017-06-25T05:26:10.873Z,24.75
2017-06-25T05:28:37.561Z,22.55
2017-06-25T05:31:04.247Z,21.92
2017-06-25T05:33:30.965Z,22.40
2017-06-25T05:35:57.632Z,20.10
2017-06-25T05:38:24.331Z,21.90
2017-06-25T05:40:51.013Z,19.65
2017-06-25T05:43:17.695Z,19.73
2017-06-25T05:45:44.376Z,19.00
2017-06-25T05:48:11.047Z,18.15
2017-06-25T05:50:37.724Z,18.90
2017-06-25T05:53:04.395Z,17.55
2017-06-25T05:55:31.081Z,17.17
2017-06-25T05:57:57.753Z,17.10
2017-06-25T06:00:24.435Z,16.33
2017-06-25T06:02:51.124Z,16.37
2017-06-25T06:05:17.828Z,16.27
2017-06-25T06:07:44.518Z,13.43
2017-06-25T06:10:11.199Z,13.73
2017-06-25T06:12:37.887Z,13.95
2017-06-25T06:15:04.577Z,12.95
2017-06-25T06:17:31.260Z,12.13
2017-06-25T06:19:57.944Z,10.45
2017-06-25T06:22:24.624Z,11.55
2017-06-25T06:24:51.315Z,11.15
2017-06-25T06:27:17.985Z,10.30
2017-06-25T06:29:44.667Z,10.52
2017-06-25T06:32:11.355Z,9.48
2017-06-25T06:34:38.025Z,10.75
2017-06-25T06:37:04.735Z,9.75
2017-06-25T06:39:31.402Z,9.48
2017-06-25T06:41:58.104Z,9.65
2017-06-25T06:44:24.778Z,8.85
2017-06-25T06:46:51.449Z,9.65
2017-06-25T06:49:18.115Z,9.40
2017-06-25T06:51:44.787Z,9.07
2017-06-25T06:54:11.489Z,10.35
2017-06-25T06:56:38.169Z,9.05
2017-06-25T06:59:04.865Z,10.45
2017-06-25T07:01:31.557Z,9.80
2017-06-25T07:03:58.264Z,10.20
2017-06-25T07:06:24.961Z,8.95
2017-06-25T07:08:51.657Z,9.30
2017-06-25T07:11:18.326Z,8.87
2017-06-25T07:13:45.032Z,8.13
2017-06-25T07:16:11.703Z,8.70
2017-06-25T07:18:38.368Z,9.40
2017-06-25T07:21:05.048Z,8.40
2017-06-25T07:23:31.721Z,8.13
2017-06-25T07:25:58.384Z,8.93
2017-06-25T07:28:25.055Z,8.43
2017-06-25T07:30:51.747Z,9.53
2017-06-25T07:33:18.427Z,9.10
2017-06-25T07:35:45.123Z,9.27
2017-06-25T07:38:11.796Z,8.97
2017-06-25T07:40:38.483Z,9.77
2017-06-25T07:43:05.153Z,8.80
2017-06-25T07:45:31.844Z,8.97
2017-06-25T07:47:58.509Z,8.90
2017-06-25T07:50:25.168Z,8.53
2017-06-25T07:52:51.832Z,7.77
2017-06-25T07:55:18.491Z,8.60
2017-06-25T07:57:45.185Z,9.27
2017-06-25T08:00:11.855Z,9.00
2017-06-25T08:02:38.552Z,10.07
2017-06-25T08:05:05.227Z,9.63
2017-06-25T08:07:31.923Z,9.53
2017-06-25T08:09:58.595Z,10.07
2017-06-25T08:12:25.261Z,10.30
2017-06-25T08:14:51.928Z,9.63
2017-06-25T08:17:18.599Z,10.20
2017-06-25T08:19:45.288Z,10.47
2017-06-25T08:22:11.964Z,11.53
2017-06-25T08:24:38.688Z,11.77
2017-06-25T08:27:05.365Z,11.13
2017-06-25T08:29:32.037Z,12.40
2017-06-25T08:31:58.704Z,10.73
2017-06-25T08:34:25.380Z,11.73
2017-06-25T08:36:52.068Z,11.90
2017-06-25T08:39:18.749Z,12.70
2017-06-25T08:41:45.460Z,11.38
2017-06-25T08:44:12.142Z,10.80
2017-06-25T08:46:38.864Z,11.88
2017-06-25T08:49:05.539Z,10.70
2017-06-25T08:51:32.243Z,10.57
2017-06-25T08:53:58.920Z,11.20
2017-06-25T08:56:25.594Z,10.50
2017-06-25T08:58:52.280Z,12.70
2017-06-25T09:01:18.963Z,12.80
2017-06-25T09:03:45.658Z,12.32
2017-06-25T09:06:12.344Z,13.32
2017-06-25T09:08:39.072Z,11.50
2017-06-25T09:11:05.753Z,12.88
2017-06-25T09:13:32.472Z,13.25
2017-06-25T09:15:59.174Z,13.90
2017-06-25T09:18:25.892Z,14.23
2017-06-25T09:20:52.577Z,16.80
2017-06-25T09:23:19.261Z,15.93
2017-06-25T09:25:45.940Z,18.02
2017-06-25T09:28:12.652Z,15.60
2017-06-25T09:30:39.348Z,15.02
2017-06-25T09:33:06.031Z,16.60
2017-06-25T09:35:32.724Z,17.33
2017-06-25T09:37:59.404Z,13.65
2017-06-25T09:40:26.071Z,8.05
2017-06-25T09:42:52.748Z,5.30
2017-06-25T09:45:19.453Z,5.20
2017-06-25T09:47:46.128Z,4.95
2017-06-25T09:50:12.792Z,5.45
2017-06-25T09:52:39.455Z,6.47
2017-06-25T09:55:06.125Z,4.72
2017-06-25T09:57:32.788Z,4.72
2017-06-25T09:59:59.467Z,4.85
2017-06-25T10:02:26.142Z,5.35
2017-06-25T10:04:52.813Z,5.28
2017-06-25T10:07:19.477Z,5.85
2017-06-25T10:09:46.148Z,5.12
2017-06-25T10:12:12.852Z,5.12
2017-06-25T10:14:39.519Z,4.80
2017-06-25T10:17:06.228Z,4.78
2017-06-25T10:19:32.899Z,4.70
2017-06-25T10:21:59.575Z,5.03
2017-06-25T10:24:26.252Z,5.03
2017-06-25T10:26:52.928Z,4.65
2017-06-25T10:29:19.606Z,5.80
2017-06-25T10:31:46.268Z,5.17
2017-06-25T10:34:12.964Z,5.87
2017-06-25T10:36:39.660Z,5.80
2017-06-25T10:39:06.364Z,6.30
2017-06-25T10:41:33.052Z,6.72
2017-06-25T10:43:59.752Z,6.70
2017-06-25T10:46:26.443Z,7.40
2017-06-25T10:48:53.120Z,6.85
2017-06-25T10:51:19.796Z,7.62
2017-06-25T10:53:46.471Z,8.35
2017-06-25T10:56:13.141Z,9.23
2017-06-25T10:58:39.811Z,8.63
2017-06-25T11:01:06.505Z,8.30
2017-06-25T11:03:33.176Z,8.88
2017-06-25T11:05:59.901Z,8.35
2017-06-25T11:08:26.581Z,8.68
2017-06-25T11:10:53.294Z,9.55
2017-06-25T11:13:19.964Z,9.40
2017-06-25T11:15:46.638Z,9.82
2017-06-25T11:18:13.320Z,11.07
2017-06-25T11:20:40.001Z,12.33
2017-06-25T11:23:06.673Z,10.73
2017-06-25T11:25:33.344Z,11.43
2017-06-25T11:28:00.050Z,12.20
2017-06-25T11:30:26.731Z,12.40
2017-06-25T11:32:53.432Z,11.60
2017-06-25T11:35:20.113Z,11.43
2017-06-25T11:37:46.784Z,12.83
2017-06-25T11:40:13.452Z,11.73
2017-06-25T11:42:40.127Z,10.47
2017-06-25T11:45:06.808Z,10.87
2017-06-25T11:47:33.488Z,10.60
2017-06-25T11:50:00.157Z,9.00
2017-06-25T11:52:26.833Z,8.97
2017-06-25T11:54:53.749Z,10.50
2017-06-25T11:57:20.435Z,10.87
2017-06-25T11:59:47.113Z,10.17
2017-06-25T12:02:13.787Z,15.90
2017-06-25T12:04:40.455Z,13.23
2017-06-25T12:07:07.143Z,10.67
2017-06-25T12:09:33.812Z,10.70
2017-06-25T12:12:00.479Z,10.90
2017-06-25T12:14:27.158Z,11.40
2017-06-25T12:16:53.834Z,10.87
2017-06-25T12:19:20.540Z,11.60
2017-06-25T12:21:47.213Z,9.77
2017-06-25T12:24:13.884Z,10.20
2017-06-25T12:26:40.551Z,9.63
2017-06-25T12:29:07.252Z,10.63
2017-06-25T12:31:33.964Z,11.57
2017-06-25T12:34:00.661Z,9.80
2017-06-25T12:36:27.323Z,8.83
2017-06-25T12:38:54.004Z,10.20
2017-06-25T12:41:20.663Z,9.67
2017-06-25T12:43:47.332Z,9.23
2017-06-25T12:46:14.032Z,10.50
2017-06-25T12:48:40.701Z,9.63
2017-06-25T12:51:07.404Z,8.47
2017-06-25T12:53:34.086Z,9.37
2017-06-25T12:56:00.779Z,9.43
2017-06-25T12:58:27.519Z,8.43
2017-06-25T13:00:54.259Z,9.30
2017-06-25T13:03:20.933Z,9.87
2017-06-25T13:05:47.624Z,9.80
2017-06-25T13:08:14.291Z,9.27
2017-06-25T13:10:40.985Z,10.70
2017-06-25T13:13:07.676Z,10.30
2017-06-25T13:15:34.373Z,10.13
2017-06-25T13:18:01.057Z,11.53
2017-06-25T13:20:27.755Z,11.70
2017-06-25T13:22:54.423Z,8.20
2017-06-25T13:25:21.142Z,8.48
2017-06-25T13:27:47.820Z,9.00
2017-06-25T13:30:14.517Z,8.55
2017-06-25T13:32:41.196Z,9.90
2017-06-25T13:35:07.885Z,10.55
2017-06-25T13:37:34.579Z,10.57
2017-06-25T13:40:01.268Z,11.27
2017-06-25T13:42:27.975Z,11.95
2017-06-25T13:44:54.652Z,12.25
2017-06-25T13:47:21.353Z,13.15
2017-06-25T13:49:48.080Z,15.73
2017-06-25T13:52:14.763Z,14.40
2017-06-25T13:54:41.439Z,13.98
2017-06-25T13:57:08.112Z,14.02
2017-06-25T13:59:34.807Z,14.82
2017-06-25T14:02:01.490Z,15.27
2017-06-25T14:04:28.195Z,14.20
2017-06-25T14:06:54.884Z,14.40
2017-06-25T14:09:21.587Z,15.68
2017-06-25T14:11:48.263Z,15.32
2017-06-25T14:14:14.953Z,13.82
2017-06-25T14:16:41.648Z,15.90
2017-06-25T14:19:08.387Z,15.00
2017-06-25T14:21:35.084Z,14.48
2017-06-25T14:24:01.771Z,14.25
2017-06-25T14:26:28.492Z,13.93
2017-06-25T14:28:55.180Z,14.70
2017-06-25T14:31:21.871Z,16.27
2017-06-25T14:33:48.545Z,16.87
2017-06-25T14:36:15.221Z,16.90
2017-06-25T14:38:41.893Z,16.10
2017-06-25T14:41:08.567Z,18.13
2017-06-25T14:43:35.240Z,17.13
2017-06-25T14:46:01.916Z,18.30
2017-06-25T14:48:28.615Z,17.93
2017-06-25T14:50:55.291Z,16.20
2017-06-25T14:53:21.992Z,16.40
2017-06-25T14:55:48.674Z,14.70
2017-06-25T14:58:15.381Z,15.03
2017-06-25T15:00:42.056Z,15.07
2017-06-25T15:03:08.770Z,16.30
2017-06-25T15:05:35.670Z,16.50
2017-06-25T15:08:02.343Z,16.60
2017-06-25T15:10:29.016Z,16.47
2017-06-25T15:12:55.703Z,16.80
2017-06-25T15:15:22.399Z,19.17
2017-06-25T15:17:49.091Z,18.55
2017-06-25T15:20:15.772Z,21.58
2017-06-25T15:22:42.459Z,21.33
2017-06-25T15:25:09.148Z,20.77
2017-06-25T15:27:35.831Z,22.05
2017-06-25T15:30:02.512Z,20.08
2017-06-25T15:32:29.196Z,22.08
2017-06-25T15:34:55.876Z,21.08
2017-06-25T15:37:22.568Z,19.70
2017-06-25T15:39:49.244Z,21.58
2017-06-25T15:42:15.929Z,21.37
2017-06-25T15:44:42.608Z,20.70
2017-06-25T15:47:09.297Z,21.40
2017-06-25T15:49:36.018Z,19.87
2017-06-25T15:52:02.711Z,20.40
2017-06-25T15:54:29.420Z,20.52
2017-06-25T15:56:56.099Z,18.70
2017-06-25T15:59:22.806Z,19.17
2017-06-25T16:01:49.484Z,19.33
2017-06-25T16:04:16.188Z,16.37
2017-06-25T16:06:42.880Z,17.62
2017-06-25T16:09:09.591Z,16.65
2017-06-25T16:11:36.292Z,15.32
2017-06-25T16:14:03.001Z,15.13
2017-06-25T16:16:29.689Z,12.98
2017-06-25T16:18:56.376Z,12.75
2017-06-25T16:21:23.052Z,14.65
2017-06-25T16:23:49.735Z,12.80
2017-06-25T16:26:16.412Z,13.25
2017-06-25T16:28:43.085Z,15.95
2017-06-25T16:31:09.767Z,15.07
2017-06-25T16:33:36.441Z,15.68
2017-06-25T16:36:03.112Z,16.70
2017-06-25T16:38:29.814Z,14.63
2017-06-25T16:40:56.483Z,66.57
2017-06-25T16:43:23.160Z,19.42
2017-06-25T16:45:49.831Z,24.37
2017-06-25T16:48:16.503Z,23.45
2017-06-25T16:50:43.184Z,23.92
2017-06-25T16:53:09.857Z,20.35
2017-06-25T16:55:36.541Z,20.55
2017-06-25T16:58:03.217Z,20.92
2017-06-25T17:00:30.135Z,21.10
2017-06-25T17:02:56.884Z,21.30
2017-06-25T17:05:23.567Z,20.33
2017-06-25T17:07:50.243Z,20.02
2017-06-25T17:10:16.944Z,25.37
2017-06-25T17:12:43.636Z,20.85
2017-06-25T17:15:10.356Z,22.37
2017-06-25T17:17:37.031Z,22.92
2017-06-25T17:20:03.716Z,21.92
2017-06-25T17:22:30.388Z,24.30
2017-06-25T17:24:57.069Z,23.05
2017-06-25T17:27:23.749Z,24.90
2017-06-25T17:29:50.438Z,19.17
2017-06-25T17:32:17.112Z,22.20
2017-06-25T17:34:43.790Z,15.55
2017-06-25T17:37:10.492Z,13.77
2017-06-25T17:39:37.169Z,14.13
2017-06-25T17:42:03.898Z,12.50
2017-06-25T17:44:30.592Z,13.55
2017-06-25T17:46:57.273Z,12.85
2017-06-25T17:49:23.949Z,15.63
2017-06-25T17:51:50.620Z,14.18
2017-06-25T17:54:17.292Z,12.70
2017-06-25T17:56:43.964Z,13.10
2017-06-25T17:59:10.639Z,13.65
2017-06-25T18:01:37.328Z,14.00
2017-06-25T18:04:04.004Z,15.18
2017-06-25T18:06:30.681Z,14.13
2017-06-25T18:08:57.584Z,13.75
2017-06-25T18:11:24.260Z,13.20
2017-06-25T18:13:50.961Z,15.98
2017-06-25T18:16:17.633Z,12.80
2017-06-25T18:18:44.333Z,13.77
2017-06-25T18:21:11.013Z,14.30
2017-06-25T18:23:37.692Z,15.55
2017-06-25T18:26:04.360Z,14.73
2017-06-25T18:28:31.044Z,13.73
2017-06-25T18:30:57.728Z,14.98
2017-06-25T18:33:24.401Z,14.70
2017-06-25T18:35:51.075Z,18.95
2017-06-25T18:38:17.752Z,15.68
2017-06-25T18:40:44.433Z,15.52
2017-06-25T18:43:11.120Z,16.40
2017-06-25T18:45:37.794Z,18.75
2017-06-25T18:48:04.464Z,17.60
2017-06-25T18:50:31.169Z,17.15
2017-06-25T18:52:57.849Z,18.27
2017-06-25T18:55:24.552Z,16.60
2017-06-25T18:57:51.228Z,15.60
2017-06-25T19:00:17.928Z,17.45
2017-06-25T19:02:44.615Z,19.42
2017-06-25T19:05:11.320Z,18.92
2017-06-25T19:07:38.008Z,16.73
2017-06-25T19:10:04.708Z,18.75
2017-06-25T19:12:31.381Z,18.98
2017-06-25T19:14:58.085Z,20.08
2017-06-25T19:17:24.759Z,19.27
2017-06-25T19:19:51.456Z,18.67
2017-06-25T19:22:18.133Z,18.48
2017-06-25T19:24:44.812Z,19.12
2017-06-25T19:27:11.500Z,17.52
2017-06-25T19:29:38.172Z,20.05
2017-06-25T19:32:04.872Z,20.70
2017-06-25T19:34:31.554Z,21.62
2017-06-25T19:36:58.256Z,21.58
2017-06-25T19:39:24.936Z,19.20
2017-06-25T19:41:51.636Z,21.73
2017-06-25T19:44:18.316Z,23.77
2017-06-25T19:46:45.020Z,20.50
2017-06-25T19:49:11.704Z,20.37
2017-06-25T19:51:38.396Z,26.30
2017-06-25T19:54:05.064Z,20.83
2017-06-25T19:56:31.756Z,21.15
2017-06-25T19:58:58.421Z,20.17
2017-06-25T20:01:25.123Z,20.00
2017-06-25T20:03:51.798Z,20.77
2017-06-25T20:06:18.492Z,20.33
2017-06-25T20:08:45.159Z,22.95
2017-06-25T20:11:11.852Z,22.92
2017-06-25T20:13:38.519Z,21.95
2017-06-25T20:16:05.235Z,24.08
2017-06-25T20:18:31.904Z,21.98
2017-06-25T20:20:58.599Z,18.77
2017-06-25T20:23:25.276Z,20.42
2017-06-25T20:25:51.968Z,18.58
2017-06-25T20:28:18.635Z,18.62
2017-06-25T20:30:45.310Z,20.17
2017-06-25T20:33:11.979Z,19.30
2017-06-25T20:35:38.641Z,19.25
2017-06-25T20:38:05.316Z,21.33
2017-06-25T20:40:31.984Z,20.85
2017-06-25T20:42:58.656Z,23.00
2017-06-25T20:45:25.324Z,20.70
2017-06-25T20:47:52.011Z,29.40
2017-06-25T20:50:18.675Z,20.98
2017-06-25T20:52:45.346Z,24.55
2017-06-25T20:55:12.011Z,21.83
2017-06-25T20:57:38.704Z,23.75
2017-06-25T21:00:05.375Z,25.35
2017-06-25T21:02:32.063Z,23.23
2017-06-25T21:04:58.739Z,23.23
2017-06-25T21:07:25.438Z,23.87
2017-06-25T21:09:52.099Z,24.73
2017-06-25T21:12:18.792Z,22.27
2017-06-25T21:14:45.463Z,26.08
2017-06-25T21:17:12.165Z,28.62
2017-06-25T21:19:38.828Z,27.55
2017-06-25T21:22:05.520Z,25.55
2017-06-25T21:24:32.191Z,27.40
2017-06-25T21:26:58.883Z,31.10
2017-06-25T21:29:25.555Z,27.15
2017-06-25T21:31:52.248Z,26.52
2017-06-25T21:34:18.920Z,27.87
2017-06-25T21:36:45.621Z,28.33
2017-06-25T21:39:12.303Z,27.17
2017-06-25T21:41:38.991Z,27.85
2017-06-25T21:44:05.651Z,26.98
2017-06-25T21:46:32.323Z,28.48
2017-06-25T21:48:58.992Z,32.10
2017-06-25T21:51:25.660Z,30.52
2017-06-25T21:53:52.328Z,29.45
2017-06-25T21:56:18.999Z,28.55
2017-06-25T21:58:45.675Z,25.88
2017-06-25T22:01:12.347Z,29.42
2017-06-25T22:03:39.014Z,28.52
2017-06-25T22:06:05.679Z,25.60
2017-06-25T22:08:32.359Z,30.50
2017-06-25T22:10:59.064Z,29.90
2017-06-25T22:13:25.728Z,29.87
2017-06-25T22:15:52.396Z,26.70
2017-06-25T22:18:19.059Z,31.40
2017-06-25T22:20:45.723Z,34.95
2017-06-25T22:23:12.388Z,32.75
2017-06-25T22:25:39.049Z,28.62
2017-06-25T22:28:05.747Z,30.98
2017-06-25T22:30:32.415Z,36.85
2017-06-25T22:32:59.107Z,38.70
2017-06-25T22:35:26.011Z,27.73
2017-06-25T22:37:52.703Z,26.98
2017-06-25T22:40:19.376Z,31.55
2017-06-25T22:42:46.071Z,25.73
2017-06-25T22:45:12.747Z,25.20
2017-06-25T22:47:39.447Z,28.55
2017-06-25T22:50:06.115Z,25.98
2017-06-25T22:52:32.807Z,24.67
2017-06-25T22:54:59.477Z,28.80
2017-06-25T22:57:26.146Z,28.12
2017-06-25T22:59:52.814Z,24.80
2017-06-25T23:02:19.482Z,24.08
2017-06-25T23:04:46.159Z,26.37
2017-06-25T23:07:12.820Z,25.15
2017-06-25T23:09:39.488Z,27.08
2017-06-25T23:12:06.156Z,24.10
2017-06-25T23:14:32.820Z,27.87
2017-06-25T23:16:59.491Z,23.20
2017-06-25T23:19:26.159Z,25.20
2017-06-25T23:21:52.827Z,25.33
2017-06-25T23:24:19.492Z,23.35
2017-06-25T23:26:46.159Z,28.15
2017-06-25T23:29:12.829Z,23.27
2017-06-25T23:31:39.502Z,26.87
2017-06-25T23:34:06.171Z,23.45
2017-06-25T23:36:32.832Z,23.15
2017-06-25T23:38:59.507Z,25.58
2017-06-25T23:41:26.175Z,25.08
2017-06-25T23:43:52.844Z,24.30
2017-06-25T23:46:19.512Z,25.35
2017-06-25T23:48:46.177Z,26.70
2017-06-25T23:51:12.847Z,28.50
2017-06-25T23:53:39.515Z,26.55
2017-06-25T23:56:06.179Z,29.15
2017-06-25T23:58:32.872Z,26.83
